createdAt,value
2024-03-19T00:02:23.757Z,1.20
2024-03-19T00:04:50.409Z,1.20
2024-03-19T00:07:16.949Z,1.21
2024-03-19T00:09:43.495Z,1.19
2024-03-19T00:12:10.152Z,1.18
2024-03-19T00:14:36.824Z,1.18
2024-03-19T00:17:03.645Z,1.19
2024-03-19T00:19:30.297Z,1.19
2024-03-19T00:21:56.831Z,1.19
2024-03-19T00:24:23.379Z,1.19
2024-03-19T00:26:49.934Z,1.16
2024-03-19T00:29:16.475Z,1.15
2024-03-19T00:31:43.208Z,1.19
2024-03-19T00:34:09.763Z,1.24
2024-03-19T00:36:36.302Z,1.24
2024-03-19T00:39:02.939Z,1.11
2024-03-19T00:41:29.503Z,1.08
2024-03-19T00:43:56.032Z,1.10
2024-03-19T00:46:22.595Z,1.07
2024-03-19T00:48:49.139Z,1.08
2024-03-19T00:51:15.689Z,1.11
2024-03-19T00:53:42.335Z,1.10
2024-03-19T00:56:08.982Z,1.10
2024-03-19T00:58:35.418Z,1.11
2024-03-19T01:01:01.961Z,1.12
2024-03-19T01:03:28.407Z,1.14
2024-03-19T01:05:55.058Z,1.20
2024-03-19T01:08:22.316Z,1.22
2024-03-19T01:10:48.867Z,1.22
2024-03-19T01:13:15.705Z,1.19
2024-03-19T01:15:42.257Z,1.16
2024-03-19T01:18:09.319Z,1.13
2024-03-19T01:20:35.955Z,1.10
2024-03-19T01:23:02.696Z,1.10
2024-03-19T01:25:29.365Z,1.12
2024-03-19T01:27:55.877Z,1.11
2024-03-19T01:30:22.556Z,1.10
2024-03-19T01:32:49.086Z,1.10
2024-03-19T01:35:15.837Z,1.13
2024-03-19T01:37:42.483Z,1.10
2024-03-19T01:40:09.649Z,1.08
2024-03-19T01:42:36.184Z,1.10
2024-03-19T01:45:12.269Z,1.08
2024-03-19T01:47:39.537Z,1.09
2024-03-19T01:50:07.857Z,1.10
2024-03-19T01:52:38.461Z,1.10
2024-03-19T01:55:06.805Z,1.09
2024-03-19T01:57:33.998Z,1.08
2024-03-19T02:00:01.437Z,1.08
2024-03-19T02:02:37.230Z,1.10
2024-03-19T02:05:06.510Z,1.12
2024-03-19T02:07:33.884Z,1.14
2024-03-19T02:10:00.856Z,1.16
2024-03-19T02:12:28.516Z,1.15
2024-03-19T02:14:56.288Z,1.12
2024-03-19T02:17:24.065Z,1.09
2024-03-19T02:19:50.912Z,1.07
2024-03-19T02:22:17.706Z,1.04
2024-03-19T02:24:44.921Z,1.07
2024-03-19T02:27:13.241Z,1.07
2024-03-19T02:29:39.769Z,1.07
2024-03-19T02:32:07.308Z,1.05
2024-03-19T02:34:33.952Z,1.03
2024-03-19T02:37:00.699Z,1.02
2024-03-19T02:39:27.360Z,1.04
2024-03-19T02:41:53.890Z,1.02
2024-03-19T02:44:20.745Z,1.01
2024-03-19T02:46:47.296Z,1.00
2024-03-19T02:49:13.938Z,1.01
2024-03-19T02:51:40.505Z,0.99
2024-03-19T02:54:07.036Z,0.97
2024-03-19T02:56:33.796Z,0.96
2024-03-19T02:59:00.430Z,0.99
2024-03-19T03:01:26.971Z,1.01
2024-03-19T03:03:53.634Z,1.01
2024-03-19T03:06:20.601Z,1.01
2024-03-19T03:08:47.319Z,0.98
2024-03-19T03:11:13.956Z,0.97
2024-03-19T03:13:40.522Z,0.97
2024-03-19T03:16:07.254Z,0.95
2024-03-19T03:18:33.790Z,0.96
2024-03-19T03:21:00.344Z,0.97
2024-03-19T03:23:27.187Z,0.98
2024-03-19T03:25:53.747Z,0.97
2024-03-19T03:28:20.378Z,0.96
2024-03-19T03:30:46.918Z,0.95
2024-03-19T03:33:13.696Z,0.95
2024-03-19T03:35:40.364Z,0.96
2024-03-19T03:38:06.862Z,0.94
2024-03-19T03:40:33.403Z,0.89
2024-03-19T03:43:03.342Z,0.90
2024-03-19T03:45:32.987Z,0.88
2024-03-19T03:47:59.606Z,0.86
2024-03-19T03:50:26.243Z,0.82
2024-03-19T03:52:52.883Z,0.81
2024-03-19T03:55:19.425Z,0.76
2024-03-19T03:57:46.148Z,0.74
2024-03-19T04:00:13.338Z,0.74
2024-03-19T04:02:43.502Z,0.69
2024-03-19T04:05:11.533Z,0.71
2024-03-19T04:07:39.936Z,0.71
2024-03-19T04:10:12.780Z,0.72
2024-03-19T04:12:40.278Z,0.71
2024-03-19T04:15:08.491Z,0.71
2024-03-19T04:17:35.503Z,0.77
2024-03-19T04:20:03.483Z,0.75
2024-03-19T04:22:30.116Z,0.73
2024-03-19T04:24:56.759Z,0.76
2024-03-19T04:27:23.301Z,0.75
2024-03-19T04:29:49.947Z,0.71
2024-03-19T04:32:16.584Z,0.72
2024-03-19T04:34:43.129Z,0.73
2024-03-19T04:37:09.785Z,0.76
2024-03-19T04:39:36.310Z,0.78
2024-03-19T04:42:02.854Z,0.77
2024-03-19T04:44:29.635Z,0.79
2024-03-19T04:46:56.332Z,0.81
2024-03-19T04:49:22.885Z,0.77
2024-03-19T04:51:49.439Z,0.78
2024-03-19T04:54:16.067Z,0.75
2024-03-19T04:56:42.779Z,0.74
2024-03-19T04:59:09.965Z,0.70
2024-03-19T05:01:36.613Z,0.68
2024-03-19T05:04:03.253Z,0.66
2024-03-19T05:06:29.791Z,0.67
2024-03-19T05:08:56.355Z,0.61
2024-03-19T05:11:22.974Z,0.61
2024-03-19T05:13:49.511Z,0.57
2024-03-19T05:16:16.055Z,0.57
2024-03-19T05:18:42.698Z,0.60
2024-03-19T05:21:09.337Z,0.60
2024-03-19T05:23:35.814Z,0.57
2024-03-19T05:26:03.240Z,0.57
2024-03-19T05:28:29.878Z,0.55
2024-03-19T05:30:56.412Z,0.61
2024-03-19T05:33:23.063Z,0.67
2024-03-19T05:35:49.812Z,0.68
2024-03-19T05:38:16.350Z,0.75
2024-03-19T05:40:43.299Z,0.80
2024-03-19T05:43:10.450Z,0.83
2024-03-19T05:45:37.028Z,0.93
2024-03-19T05:48:04.569Z,1.15
2024-03-19T05:50:32.138Z,1.53
2024-03-19T05:52:58.678Z,2.11
2024-03-19T05:55:25.426Z,2.57
2024-03-19T05:57:52.067Z,2.87
2024-03-19T06:00:19.117Z,3.09
2024-03-19T06:02:45.563Z,3.15
2024-03-19T06:05:12.387Z,3.24
2024-03-19T06:07:39.033Z,3.31
2024-03-19T06:10:07.033Z,3.19
2024-03-19T06:12:33.639Z,3.20
2024-03-19T06:15:00.374Z,3.21
2024-03-19T06:17:27.148Z,3.32
2024-03-19T06:19:53.678Z,3.55
2024-03-19T06:22:20.310Z,3.65
2024-03-19T06:24:46.850Z,3.44
2024-03-19T06:27:13.395Z,3.13
2024-03-19T06:29:40.038Z,2.89
2024-03-19T06:32:07.391Z,2.67
2024-03-19T06:34:33.938Z,2.44
2024-03-19T06:37:00.575Z,2.34
2024-03-19T06:39:27.212Z,2.24
2024-03-19T06:41:53.757Z,2.20
2024-03-19T06:44:20.401Z,2.15
2024-03-19T06:46:47.157Z,2.10
2024-03-19T06:49:13.689Z,2.12
2024-03-19T06:51:40.536Z,2.20
2024-03-19T06:54:07.136Z,2.18
2024-03-19T06:56:33.720Z,2.15
2024-03-19T06:59:00.261Z,2.11
2024-03-19T07:01:26.910Z,2.08
2024-03-19T07:04:05.909Z,2.13
2024-03-19T07:06:34.014Z,2.14
2024-03-19T07:09:00.594Z,2.10
2024-03-19T07:11:27.190Z,2.04
2024-03-19T07:13:53.730Z,1.97
2024-03-19T07:16:20.463Z,1.92
2024-03-19T07:18:47.639Z,1.85
2024-03-19T07:21:14.272Z,1.84
2024-03-19T07:23:40.808Z,1.80
2024-03-19T07:26:07.452Z,1.82
2024-03-19T07:28:33.986Z,1.93
2024-03-19T07:31:00.521Z,2.04
2024-03-19T07:33:27.126Z,2.20
2024-03-19T07:35:53.845Z,2.28
2024-03-19T07:38:20.559Z,2.37
2024-03-19T07:40:47.869Z,2.41
2024-03-19T07:43:14.555Z,2.45
2024-03-19T07:45:41.100Z,2.45
2024-03-19T07:48:08.102Z,2.50
2024-03-19T07:50:34.734Z,2.64
2024-03-19T07:53:02.720Z,2.79
2024-03-19T07:55:29.353Z,2.78
2024-03-19T07:57:55.901Z,2.88
2024-03-19T08:00:22.547Z,3.12
2024-03-19T08:02:49.278Z,3.23
2024-03-19T08:05:15.964Z,3.29
2024-03-19T08:07:42.680Z,3.40
2024-03-19T08:10:09.397Z,3.46
2024-03-19T08:12:35.961Z,3.59
2024-03-19T08:15:06.604Z,3.64
2024-03-19T08:17:33.238Z,3.74
2024-03-19T08:20:00.629Z,3.80
2024-03-19T08:22:27.402Z,3.86
2024-03-19T08:24:53.836Z,3.89
2024-03-19T08:27:20.845Z,3.89
2024-03-19T08:29:53.524Z,3.85
2024-03-19T08:32:20.184Z,3.99
2024-03-19T08:34:46.645Z,4.09
2024-03-19T08:37:13.342Z,4.21
2024-03-19T08:39:39.805Z,4.33
2024-03-19T08:42:06.978Z,4.57
2024-03-19T08:44:34.934Z,4.87
2024-03-19T08:47:01.348Z,5.10
2024-03-19T08:49:27.776Z,4.96
2024-03-19T08:51:54.690Z,4.79
2024-03-19T08:54:21.286Z,4.74
2024-03-19T08:56:47.951Z,4.56
2024-03-19T08:59:14.416Z,4.40
2024-03-19T09:01:41.358Z,4.22
2024-03-19T09:04:07.898Z,4.11
2024-03-19T09:06:34.417Z,4.07
2024-03-19T09:09:00.900Z,4.16
2024-03-19T09:11:27.626Z,4.10
2024-03-19T09:13:54.183Z,3.98
2024-03-19T09:16:20.803Z,4.07
2024-03-19T09:18:47.330Z,4.28
2024-03-19T09:21:13.794Z,4.81
2024-03-19T09:23:40.709Z,5.36
2024-03-19T09:26:07.421Z,5.65
2024-03-19T09:28:34.204Z,5.60
2024-03-19T09:31:00.942Z,5.39
2024-03-19T09:33:28.311Z,5.24
2024-03-19T09:35:55.397Z,5.13
2024-03-19T09:38:21.980Z,5.17
2024-03-19T09:40:54.177Z,5.55
2024-03-19T09:43:23.976Z,5.92
2024-03-19T09:45:51.693Z,5.95
2024-03-19T09:48:20.257Z,6.36
2024-03-19T09:50:48.353Z,6.44
2024-03-19T09:53:20.045Z,6.44
2024-03-19T09:55:47.468Z,6.53
2024-03-19T09:58:15.031Z,6.42
2024-03-19T10:00:45.459Z,6.15
2024-03-19T10:03:12.202Z,6.04
2024-03-19T10:05:38.746Z,6.04
2024-03-19T10:08:06.975Z,6.01
2024-03-19T10:10:34.286Z,5.94
2024-03-19T10:13:01.634Z,5.82
2024-03-19T10:15:28.193Z,5.76
2024-03-19T10:17:54.859Z,5.90
2024-03-19T10:20:22.229Z,6.15
2024-03-19T10:22:51.215Z,6.46
2024-03-19T10:25:17.836Z,6.63
2024-03-19T10:27:49.029Z,6.74
2024-03-19T10:30:18.212Z,6.91
2024-03-19T10:32:46.894Z,7.03
2024-03-19T10:35:18.905Z,6.89
2024-03-19T10:37:50.623Z,6.70
2024-03-19T10:40:19.322Z,6.53
2024-03-19T10:42:47.189Z,6.44
2024-03-19T10:45:24.311Z,6.46
2024-03-19T10:47:53.396Z,6.73
2024-03-19T10:50:21.559Z,6.85
2024-03-19T10:52:54.341Z,6.73
2024-03-19T10:55:21.522Z,6.77
2024-03-19T10:57:48.391Z,6.88
2024-03-19T11:00:20.720Z,6.91
2024-03-19T11:02:48.395Z,6.80
2024-03-19T11:05:21.005Z,6.86
2024-03-19T11:07:51.514Z,6.99
2024-03-19T11:10:39.151Z,7.12
2024-03-19T11:13:18.668Z,7.20
2024-03-19T11:15:46.249Z,7.42
2024-03-19T11:18:12.800Z,7.41
2024-03-19T11:20:42.000Z,7.21
2024-03-19T11:23:13.477Z,7.12
2024-03-19T11:25:40.138Z,7.21
2024-03-19T11:28:19.240Z,7.11
2024-03-19T11:30:53.204Z,7.35
2024-03-19T11:33:21.337Z,7.94
2024-03-19T11:35:48.079Z,8.38
2024-03-19T11:38:15.476Z,8.39
2024-03-19T11:40:43.354Z,8.34
2024-03-19T11:43:17.994Z,8.29
2024-03-19T11:45:49.404Z,8.11
2024-03-19T11:48:18.108Z,8.00
2024-03-19T11:50:48.641Z,7.90
2024-03-19T11:53:18.884Z,7.96
2024-03-19T11:55:45.939Z,8.14
2024-03-19T11:58:13.296Z,8.35
2024-03-19T12:00:40.447Z,8.39
2024-03-19T12:03:07.405Z,8.35
2024-03-19T12:05:34.496Z,8.37
2024-03-19T12:08:02.340Z,8.26
2024-03-19T12:10:29.042Z,8.06
2024-03-19T12:12:56.650Z,8.10
2024-03-19T12:15:25.403Z,8.39
2024-03-19T12:17:53.994Z,8.56
2024-03-19T12:20:21.807Z,8.67
2024-03-19T12:22:50.636Z,8.33
2024-03-19T12:25:21.755Z,8.06
2024-03-19T12:27:48.616Z,7.96
2024-03-19T12:30:24.476Z,8.07
2024-03-19T12:32:56.512Z,8.22
2024-03-19T12:35:25.610Z,8.27
2024-03-19T12:37:53.921Z,8.24
2024-03-19T12:40:20.699Z,8.18
2024-03-19T12:42:48.239Z,8.18
2024-03-19T12:45:15.901Z,8.23
2024-03-19T12:47:43.282Z,8.34
2024-03-19T12:50:10.729Z,8.45
2024-03-19T12:52:37.793Z,8.42
2024-03-19T12:55:04.901Z,8.51
2024-03-19T12:57:36.615Z,8.74
2024-03-19T13:00:05.010Z,8.98
2024-03-19T13:02:31.743Z,8.98
2024-03-19T13:04:58.388Z,8.65
2024-03-19T13:07:24.949Z,8.33
2024-03-19T13:09:51.568Z,7.98
2024-03-19T13:12:18.315Z,7.85
2024-03-19T13:14:45.080Z,7.60
2024-03-19T13:17:11.705Z,7.45
2024-03-19T13:19:38.259Z,7.35
2024-03-19T13:22:04.902Z,7.32
2024-03-19T13:24:31.638Z,7.45
2024-03-19T13:26:58.690Z,7.49
2024-03-19T13:29:25.193Z,7.41
2024-03-19T13:31:51.774Z,7.36
2024-03-19T13:34:18.419Z,7.40
2024-03-19T13:36:44.965Z,7.39
2024-03-19T13:39:22.256Z,7.38
2024-03-19T13:41:52.832Z,7.32
2024-03-19T13:44:19.449Z,7.30
2024-03-19T13:46:45.984Z,7.46
2024-03-19T13:49:24.604Z,7.54
2024-03-19T13:51:51.181Z,7.57
2024-03-19T13:54:17.718Z,7.65
2024-03-19T13:56:44.257Z,7.73
2024-03-19T13:59:10.797Z,7.73
2024-03-19T14:01:37.542Z,7.67
2024-03-19T14:04:04.197Z,7.61
2024-03-19T14:06:30.939Z,7.55
2024-03-19T14:08:57.481Z,7.57
2024-03-19T14:11:25.149Z,7.86
2024-03-19T14:13:51.693Z,7.99
2024-03-19T14:16:18.158Z,8.11
2024-03-19T14:18:44.677Z,8.10
2024-03-19T14:21:11.275Z,7.93
2024-03-19T14:23:40.577Z,7.93
2024-03-19T14:26:07.017Z,8.02
2024-03-19T14:28:33.634Z,8.42
2024-03-19T14:31:00.154Z,8.94
2024-03-19T14:33:26.816Z,9.24
2024-03-19T14:35:53.648Z,10.07
2024-03-19T14:38:20.196Z,9.89
2024-03-19T14:40:47.043Z,10.04
2024-03-19T14:43:13.718Z,10.76
2024-03-19T14:45:41.652Z,11.45
2024-03-19T14:48:14.145Z,11.81
2024-03-19T14:50:41.164Z,12.21
2024-03-19T14:53:07.704Z,12.44
2024-03-19T14:55:34.238Z,12.57
2024-03-19T14:58:00.787Z,12.68
2024-03-19T15:00:27.427Z,12.65
2024-03-19T15:02:53.956Z,12.64
2024-03-19T15:05:20.502Z,12.84
2024-03-19T15:07:46.987Z,13.20
2024-03-19T15:10:13.582Z,13.39
2024-03-19T15:12:40.229Z,13.37
2024-03-19T15:15:07.441Z,13.22
2024-03-19T15:17:34.253Z,13.23
2024-03-19T15:20:00.810Z,13.25
2024-03-19T15:22:27.298Z,13.03
2024-03-19T15:24:53.840Z,12.66
2024-03-19T15:27:20.481Z,12.20
2024-03-19T15:29:55.862Z,12.18
2024-03-19T15:32:32.365Z,12.44
2024-03-19T15:35:07.021Z,12.33
2024-03-19T15:37:33.667Z,11.38
2024-03-19T15:40:00.412Z,10.23
2024-03-19T15:42:26.955Z,9.39
2024-03-19T15:44:53.608Z,8.93
2024-03-19T15:49:53.733Z,8.27
2024-03-19T15:52:20.381Z,7.96
2024-03-19T15:54:47.108Z,7.73
2024-03-19T15:57:13.754Z,7.56
2024-03-19T15:59:40.295Z,7.47
2024-03-19T16:02:10.252Z,7.42
2024-03-19T16:04:37.069Z,7.39
2024-03-19T16:07:04.128Z,7.30
2024-03-19T16:09:30.768Z,7.26
2024-03-19T16:11:58.846Z,7.22
2024-03-19T16:14:25.396Z,7.15
2024-03-19T16:16:51.975Z,7.12
2024-03-19T16:19:18.583Z,7.05
2024-03-19T16:21:45.226Z,6.95
2024-03-19T16:24:11.821Z,6.83
2024-03-19T16:26:38.361Z,6.74
2024-03-19T16:29:04.939Z,6.71
2024-03-19T16:31:31.507Z,6.86
2024-03-19T16:33:58.150Z,6.91
2024-03-19T16:36:24.695Z,6.88
2024-03-19T16:38:51.233Z,6.73
2024-03-19T16:41:17.882Z,6.52
2024-03-19T16:43:44.429Z,6.33
2024-03-19T16:46:11.089Z,6.16
2024-03-19T16:48:37.644Z,6.06
2024-03-19T16:51:04.289Z,5.90
2024-03-19T16:53:30.923Z,5.80
2024-03-19T16:55:58.180Z,5.70
2024-03-19T16:58:24.975Z,5.58
2024-03-19T17:00:51.461Z,5.48
2024-03-19T17:03:18.013Z,5.40
2024-03-19T17:05:44.548Z,5.30
2024-03-19T17:08:11.080Z,5.22
2024-03-19T17:10:37.727Z,5.13
2024-03-19T17:13:04.783Z,5.04
2024-03-19T17:15:31.258Z,4.97
2024-03-19T17:17:58.160Z,4.89
2024-03-19T17:20:24.704Z,4.83
2024-03-19T17:22:51.660Z,4.73
2024-03-19T17:25:18.344Z,4.60
2024-03-19T17:27:44.935Z,4.50
2024-03-19T17:30:12.033Z,4.39
2024-03-19T17:32:38.620Z,4.27
2024-03-19T17:35:05.526Z,4.18
2024-03-19T17:37:32.121Z,4.09
2024-03-19T17:39:58.651Z,3.94
2024-03-19T17:42:25.299Z,3.76
2024-03-19T17:44:51.834Z,3.62
2024-03-19T17:47:18.393Z,3.46
2024-03-19T17:49:45.037Z,3.33
2024-03-19T17:52:11.610Z,3.19
2024-03-19T17:54:38.120Z,3.07
2024-03-19T17:57:05.062Z,2.94
2024-03-19T17:59:31.601Z,2.82
2024-03-19T18:01:58.242Z,2.70
2024-03-19T18:04:24.814Z,2.66
2024-03-19T18:06:51.527Z,2.62
2024-03-19T18:09:18.070Z,2.57
2024-03-19T18:11:44.763Z,2.50
2024-03-19T18:14:11.259Z,2.39
2024-03-19T18:16:37.800Z,2.28
2024-03-19T18:19:04.534Z,2.16
2024-03-19T18:21:31.113Z,2.06
2024-03-19T18:23:57.651Z,1.98
2024-03-19T18:26:24.252Z,1.92
2024-03-19T18:28:50.798Z,1.89
2024-03-19T18:31:17.235Z,1.89
2024-03-19T18:33:43.884Z,1.90
2024-03-19T18:36:10.461Z,1.83
2024-03-19T18:38:37.016Z,1.78
2024-03-19T18:41:03.597Z,1.72
2024-03-19T18:43:30.140Z,1.70
2024-03-19T18:45:56.680Z,1.69
2024-03-19T18:48:23.339Z,1.65
2024-03-19T18:50:49.882Z,1.59
2024-03-19T18:53:16.727Z,1.54
2024-03-19T18:55:43.268Z,1.43
2024-03-19T18:58:10.057Z,1.34
2024-03-19T19:00:36.572Z,1.24
2024-03-19T19:03:03.304Z,1.16
2024-03-19T19:05:29.843Z,1.09
2024-03-19T19:07:56.518Z,0.96
2024-03-19T19:10:23.124Z,0.87
2024-03-19T19:12:50.073Z,0.82
2024-03-19T19:15:16.732Z,0.75
2024-03-19T19:17:43.266Z,0.70
2024-03-19T19:20:10.101Z,0.66
2024-03-19T19:22:36.647Z,0.66
2024-03-19T19:25:03.390Z,0.64
2024-03-19T19:27:30.031Z,0.59
2024-03-19T19:29:56.679Z,0.54
2024-03-19T19:32:23.419Z,0.50
2024-03-19T19:34:50.059Z,0.44
2024-03-19T19:37:17.011Z,0.38
2024-03-19T19:39:43.650Z,0.36
2024-03-19T19:42:10.822Z,0.33
2024-03-19T19:44:37.467Z,0.30
2024-03-19T19:47:05.314Z,0.32
2024-03-19T19:49:34.628Z,0.28
2024-03-19T19:52:01.173Z,0.24
2024-03-19T19:54:27.715Z,0.20
2024-03-19T19:56:54.265Z,0.21
2024-03-19T19:59:21.421Z,0.18
2024-03-19T20:01:48.173Z,0.17
2024-03-19T20:04:15.229Z,0.13
2024-03-19T20:06:41.878Z,0.09
2024-03-19T20:09:08.725Z,0.05
2024-03-19T20:11:35.267Z,-0.04
2024-03-19T20:14:01.803Z,-0.12
2024-03-19T20:16:28.376Z,-0.19
2024-03-19T20:18:54.990Z,-0.29
2024-03-19T20:21:21.541Z,-0.36
2024-03-19T20:23:48.286Z,-0.42
2024-03-19T20:26:14.833Z,-0.50
2024-03-19T20:28:41.376Z,-0.55
2024-03-19T20:31:08.022Z,-0.57
2024-03-19T20:33:34.562Z,-0.60
2024-03-19T20:36:01.223Z,-0.62
2024-03-19T20:38:27.770Z,-0.65
2024-03-19T20:40:54.393Z,-0.68
2024-03-19T20:43:20.935Z,-0.71
2024-03-19T20:45:48.313Z,-0.76
2024-03-19T20:48:14.881Z,-0.81
2024-03-19T20:50:41.410Z,-0.84
2024-03-19T20:53:07.959Z,-0.81
2024-03-19T20:55:34.528Z,-0.80
2024-03-19T20:58:01.341Z,-0.81
2024-03-19T21:00:28.191Z,-0.84
2024-03-19T21:02:54.761Z,-0.89
2024-03-19T21:05:21.405Z,-0.90
2024-03-19T21:07:48.016Z,-0.92
2024-03-19T21:10:14.558Z,-0.95
2024-03-19T21:12:41.098Z,-0.98
2024-03-19T21:15:08.256Z,-0.98
2024-03-19T21:17:34.810Z,-1.02
2024-03-19T21:20:01.644Z,-1.03
2024-03-19T21:22:28.293Z,-1.08
2024-03-19T21:24:55.151Z,-1.13
2024-03-19T21:27:21.707Z,-1.18
2024-03-19T21:29:48.435Z,-1.24
2024-03-19T21:32:15.388Z,-1.27
2024-03-19T21:34:42.030Z,-1.30
2024-03-19T21:37:08.574Z,-1.31
2024-03-19T21:39:35.322Z,-1.31
2024-03-19T21:42:01.971Z,-1.30
2024-03-19T21:44:28.552Z,-1.33
2024-03-19T21:46:55.050Z,-1.45
2024-03-19T21:49:21.637Z,-1.51
2024-03-19T21:51:48.187Z,-1.54
2024-03-19T21:54:15.899Z,-1.59
2024-03-19T21:56:43.621Z,-1.63
2024-03-19T21:59:10.467Z,-1.67
2024-03-19T22:01:37.007Z,-1.72
2024-03-19T22:04:03.864Z,-1.72
2024-03-19T22:06:30.497Z,-1.71
2024-03-19T22:08:57.034Z,-1.69
2024-03-19T22:11:23.897Z,-1.64
2024-03-19T22:13:50.430Z,-1.62
2024-03-19T22:16:17.174Z,-1.64
2024-03-19T22:18:43.920Z,-1.66
2024-03-19T22:21:10.460Z,-1.72
2024-03-19T22:23:37.002Z,-1.74
2024-03-19T22:26:03.754Z,-1.73
2024-03-19T22:28:30.446Z,-1.71
2024-03-19T22:30:56.936Z,-1.74
2024-03-19T22:33:23.701Z,-1.75
2024-03-19T22:35:50.327Z,-1.72
2024-03-19T22:38:16.974Z,-1.73
2024-03-19T22:40:44.128Z,-1.73
2024-03-19T22:43:10.665Z,-1.76
2024-03-19T22:45:37.199Z,-1.79
2024-03-19T22:50:40.535Z,-1.73
2024-03-19T22:53:07.028Z,-1.74
2024-03-19T22:55:33.537Z,-1.76
2024-03-19T22:58:00.071Z,-1.78
2024-03-19T23:00:26.610Z,-1.85
2024-03-19T23:02:53.252Z,-1.92
2024-03-19T23:05:19.901Z,-1.97
2024-03-19T23:07:46.525Z,-2.01
2024-03-19T23:10:13.403Z,-2.02
2024-03-19T23:12:43.322Z,-2.02
2024-03-19T23:15:11.956Z,-2.05
2024-03-19T23:17:38.561Z,-2.09
2024-03-19T23:20:05.933Z,-2.10
2024-03-19T23:22:33.204Z,-2.10
2024-03-19T23:25:00.032Z,-2.11
2024-03-19T23:27:26.578Z,-2.13
2024-03-19T23:29:53.114Z,-2.11
2024-03-19T23:32:19.715Z,-2.10
2024-03-19T23:34:46.819Z,-2.13
2024-03-19T23:40:32.544Z,-2.13
2024-03-19T23:42:59.098Z,-2.13
2024-03-19T23:45:25.732Z,-2.14
2024-03-19T23:47:52.581Z,-2.15
2024-03-19T23:50:19.343Z,-2.17
2024-03-19T23:52:45.908Z,-2.17
2024-03-19T23:55:12.736Z,-2.18
2024-03-19T23:57:39.196Z,-2.18
